sensor_id;sensor_type;location;lat;lon;timestamp;temperature;humidity
22706;DHT22;11520;51.198;4.468;2022-08-21T00:00:23;18.00;99.90
22706;DHT22;11520;51.198;4.468;2022-08-21T00:02:55;18.00;99.90
22706;DHT22;11520;51.198;4.468;2022-08-21T00:05:22;18.00;99.90
22706;DHT22;11520;51.198;4.468;2022-08-21T00:07:47;18.00;99.90
22706;DHT22;11520;51.198;4.468;2022-08-21T00:10:14;18.00;99.90
22706;DHT22;11520;51.198;4.468;2022-08-21T00:12:40;18.00;99.90
22706;DHT22;11520;51.198;4.468;2022-08-21T00:15:07;18.00;99.90
22706;DHT22;11520;51.198;4.468;2022-08-21T00:17:33;18.00;99.90
22706;DHT22;11520;51.198;4.468;2022-08-21T00:19:58;18.00;99.90
22706;DHT22;11520;51.198;4.468;2022-08-21T00:22:24;18.00;99.90
22706;DHT22;11520;51.198;4.468;2022-08-21T00:24:50;18.00;99.90
22706;DHT22;11520;51.198;4.468;2022-08-21T00:27:15;18.10;99.90
22706;DHT22;11520;51.198;4.468;2022-08-21T00:29:41;18.00;99.90
22706;DHT22;11520;51.198;4.468;2022-08-21T00:32:07;18.00;99.90
22706;DHT22;11520;51.198;4.468;2022-08-21T00:34:35;18.00;99.90
22706;DHT22;11520;51.198;4.468;2022-08-21T00:37:00;18.00;99.90
22706;DHT22;11520;51.198;4.468;2022-08-21T00:39:26;18.00;99.90
22706;DHT22;11520;51.198;4.468;2022-08-21T00:41:52;18.00;99.90
22706;DHT22;11520;51.198;4.468;2022-08-21T00:44:19;18.00;99.90
22706;DHT22;11520;51.198;4.468;2022-08-21T00:46:45;18.00;99.90
22706;DHT22;11520;51.198;4.468;2022-08-21T00:49:14;18.00;99.90
22706;DHT22;11520;51.198;4.468;2022-08-21T00:51:51;18.00;99.90
22706;DHT22;11520;51.198;4.468;2022-08-21T00:54:19;17.90;99.90
22706;DHT22;11520;51.198;4.468;2022-08-21T00:56:54;17.90;99.90
22706;DHT22;11520;51.198;4.468;2022-08-21T00:59:23;17.90;99.90
22706;DHT22;11520;51.198;4.468;2022-08-21T01:01:49;17.80;99.90
22706;DHT22;11520;51.198;4.468;2022-08-21T01:04:16;17.80;99.90
22706;DHT22;11520;51.198;4.468;2022-08-21T01:06:42;17.90;99.90
22706;DHT22;11520;51.198;4.468;2022-08-21T01:09:11;17.90;99.90
22706;DHT22;11520;51.198;4.468;2022-08-21T01:11:37;17.80;99.90
22706;DHT22;11520;51.198;4.468;2022-08-21T01:14:03;17.90;99.90
22706;DHT22;11520;51.198;4.468;2022-08-21T01:16:29;17.80;99.90
22706;DHT22;11520;51.198;4.468;2022-08-21T01:18:55;17.80;99.90
22706;DHT22;11520;51.198;4.468;2022-08-21T01:21:25;17.70;99.90
22706;DHT22;11520;51.198;4.468;2022-08-21T01:23:56;17.70;99.90
22706;DHT22;11520;51.198;4.468;2022-08-21T01:26:27;17.60;99.90
22706;DHT22;11520;51.198;4.468;2022-08-21T01:29:13;17.60;99.90
22706;DHT22;11520;51.198;4.468;2022-08-21T01:31:41;17.50;99.90
22706;DHT22;11520;51.198;4.468;2022-08-21T01:34:08;17.40;99.90
22706;DHT22;11520;51.198;4.468;2022-08-21T01:36:34;17.30;99.90
22706;DHT22;11520;51.198;4.468;2022-08-21T01:39:01;17.30;99.90
22706;DHT22;11520;51.198;4.468;2022-08-21T01:41:29;17.20;99.90
22706;DHT22;11520;51.198;4.468;2022-08-21T01:43:54;17.20;99.90
22706;DHT22;11520;51.198;4.468;2022-08-21T01:46:20;17.20;99.90
22706;DHT22;11520;51.198;4.468;2022-08-21T01:48:46;17.10;99.90
22706;DHT22;11520;51.198;4.468;2022-08-21T01:51:14;17.10;99.90
22706;DHT22;11520;51.198;4.468;2022-08-21T01:53:41;17.10;99.90
22706;DHT22;11520;51.198;4.468;2022-08-21T01:56:10;17.00;99.90
22706;DHT22;11520;51.198;4.468;2022-08-21T01:58:37;17.00;99.90
22706;DHT22;11520;51.198;4.468;2022-08-21T02:01:03;17.00;99.90
22706;DHT22;11520;51.198;4.468;2022-08-21T02:03:30;16.90;99.90
22706;DHT22;11520;51.198;4.468;2022-08-21T02:05:58;16.90;99.90
22706;DHT22;11520;51.198;4.468;2022-08-21T02:08:24;16.90;99.90
22706;DHT22;11520;51.198;4.468;2022-08-21T02:10:51;16.80;99.90
22706;DHT22;11520;51.198;4.468;2022-08-21T02:13:19;16.80;99.90
22706;DHT22;11520;51.198;4.468;2022-08-21T02:15:45;16.70;99.90
22706;DHT22;11520;51.198;4.468;2022-08-21T02:18:10;16.60;99.90
22706;DHT22;11520;51.198;4.468;2022-08-21T02:20:41;16.60;99.90
22706;DHT22;11520;51.198;4.468;2022-08-21T02:23:09;16.60;99.90
22706;DHT22;11520;51.198;4.468;2022-08-21T02:25:36;16.60;99.90
22706;DHT22;11520;51.198;4.468;2022-08-21T02:28:08;16.60;99.90
22706;DHT22;11520;51.198;4.468;2022-08-21T02:30:37;16.50;99.90
22706;DHT22;11520;51.198;4.468;2022-08-21T02:33:04;16.40;99.90
22706;DHT22;11520;51.198;4.468;2022-08-21T02:35:31;16.40;99.90
22706;DHT22;11520;51.198;4.468;2022-08-21T02:38:00;16.50;99.90
22706;DHT22;11520;51.198;4.468;2022-08-21T02:40:31;16.30;99.90
22706;DHT22;11520;51.198;4.468;2022-08-21T02:42:58;16.30;99.90
22706;DHT22;11520;51.198;4.468;2022-08-21T02:45:24;16.20;99.90
22706;DHT22;11520;51.198;4.468;2022-08-21T02:48:02;16.10;99.90
22706;DHT22;11520;51.198;4.468;2022-08-21T02:50:33;16.20;99.90
22706;DHT22;11520;51.198;4.468;2022-08-21T02:52:59;16.20;99.90
22706;DHT22;11520;51.198;4.468;2022-08-21T02:55:28;16.20;99.90
22706;DHT22;11520;51.198;4.468;2022-08-21T02:57:56;16.20;99.90
22706;DHT22;11520;51.198;4.468;2022-08-21T03:00:26;16.20;99.90
22706;DHT22;11520;51.198;4.468;2022-08-21T03:02:54;16.20;99.90
22706;DHT22;11520;51.198;4.468;2022-08-21T03:05:22;16.30;99.90
22706;DHT22;11520;51.198;4.468;2022-08-21T03:07:49;16.20;99.90
22706;DHT22;11520;51.198;4.468;2022-08-21T03:10:17;16.20;99.90
22706;DHT22;11520;51.198;4.468;2022-08-21T03:12:42;16.20;99.90
22706;DHT22;11520;51.198;4.468;2022-08-21T03:15:13;16.20;99.90
22706;DHT22;11520;51.198;4.468;2022-08-21T03:17:39;16.20;99.90
22706;DHT22;11520;51.198;4.468;2022-08-21T03:20:06;16.20;99.90
22706;DHT22;11520;51.198;4.468;2022-08-21T03:22:32;16.20;99.90
22706;DHT22;11520;51.198;4.468;2022-08-21T03:25:00;16.20;99.90
22706;DHT22;11520;51.198;4.468;2022-08-21T03:27:27;16.20;99.90
22706;DHT22;11520;51.198;4.468;2022-08-21T03:29:53;16.20;99.90
22706;DHT22;11520;51.198;4.468;2022-08-21T03:32:19;16.20;99.90
22706;DHT22;11520;51.198;4.468;2022-08-21T03:34:46;16.20;99.90
22706;DHT22;11520;51.198;4.468;2022-08-21T03:37:13;16.20;99.90
22706;DHT22;11520;51.198;4.468;2022-08-21T03:39:40;16.10;99.90
22706;DHT22;11520;51.198;4.468;2022-08-21T03:42:07;16.10;99.90
22706;DHT22;11520;51.198;4.468;2022-08-21T03:44:33;16.00;99.90
22706;DHT22;11520;51.198;4.468;2022-08-21T03:47:01;16.00;99.90
22706;DHT22;11520;51.198;4.468;2022-08-21T03:49:28;16.00;99.90
22706;DHT22;11520;51.198;4.468;2022-08-21T03:51:54;16.00;99.90
22706;DHT22;11520;51.198;4.468;2022-08-21T03:54:19;16.00;99.90
22706;DHT22;11520;51.198;4.468;2022-08-21T03:56:46;16.00;99.90
22706;DHT22;11520;51.198;4.468;2022-08-21T03:59:13;15.90;99.90
22706;DHT22;11520;51.198;4.468;2022-08-21T04:01:39;16.00;99.90
22706;DHT22;11520;51.198;4.468;2022-08-21T04:04:05;16.00;99.90
22706;DHT22;11520;51.198;4.468;2022-08-21T04:06:31;16.00;99.90
22706;DHT22;11520;51.198;4.468;2022-08-21T04:08:58;16.00;99.90
22706;DHT22;11520;51.198;4.468;2022-08-21T04:11:30;16.00;99.90
22706;DHT22;11520;51.198;4.468;2022-08-21T04:13:55;16.00;99.90
22706;DHT22;11520;51.198;4.468;2022-08-21T04:16:21;16.00;99.90
22706;DHT22;11520;51.198;4.468;2022-08-21T04:18:46;15.90;99.90
22706;DHT22;11520;51.198;4.468;2022-08-21T04:21:12;15.90;99.90
22706;DHT22;11520;51.198;4.468;2022-08-21T04:23:39;15.90;99.90
22706;DHT22;11520;51.198;4.468;2022-08-21T04:26:05;15.90;99.90
22706;DHT22;11520;51.198;4.468;2022-08-21T04:28:33;15.90;99.90
22706;DHT22;11520;51.198;4.468;2022-08-21T04:30:59;15.90;99.90
22706;DHT22;11520;51.198;4.468;2022-08-21T04:33:25;15.90;99.90
22706;DHT22;11520;51.198;4.468;2022-08-21T04:35:50;15.90;99.90
22706;DHT22;11520;51.198;4.468;2022-08-21T04:38:16;15.90;99.90
22706;DHT22;11520;51.198;4.468;2022-08-21T04:40:42;15.90;99.90
22706;DHT22;11520;51.198;4.468;2022-08-21T04:43:09;15.90;99.90
22706;DHT22;11520;51.198;4.468;2022-08-21T04:45:38;15.90;99.90
22706;DHT22;11520;51.198;4.468;2022-08-21T04:48:07;15.90;99.90
22706;DHT22;11520;51.198;4.468;2022-08-21T04:50:43;15.90;99.90
22706;DHT22;11520;51.198;4.468;2022-08-21T04:53:20;15.90;99.90
22706;DHT22;11520;51.198;4.468;2022-08-21T04:55:48;16.00;99.90
22706;DHT22;11520;51.198;4.468;2022-08-21T04:58:17;16.00;99.90
22706;DHT22;11520;51.198;4.468;2022-08-21T05:00:46;16.10;99.90
22706;DHT22;11520;51.198;4.468;2022-08-21T05:03:12;16.20;99.90
22706;DHT22;11520;51.198;4.468;2022-08-21T05:05:41;16.10;99.90
22706;DHT22;11520;51.198;4.468;2022-08-21T05:08:07;16.10;99.90
22706;DHT22;11520;51.198;4.468;2022-08-21T05:10:36;16.20;99.90
22706;DHT22;11520;51.198;4.468;2022-08-21T05:13:02;16.20;99.90
22706;DHT22;11520;51.198;4.468;2022-08-21T05:15:31;16.30;99.90
22706;DHT22;11520;51.198;4.468;2022-08-21T05:17:57;16.30;99.90
22706;DHT22;11520;51.198;4.468;2022-08-21T05:20:23;16.30;99.90
22706;DHT22;11520;51.198;4.468;2022-08-21T05:22:50;16.30;99.90
22706;DHT22;11520;51.198;4.468;2022-08-21T05:25:19;16.30;99.90
22706;DHT22;11520;51.198;4.468;2022-08-21T05:31:01;16.40;99.90
22706;DHT22;11520;51.198;4.468;2022-08-21T05:33:28;16.60;99.90
22706;DHT22;11520;51.198;4.468;2022-08-21T05:35:54;16.60;99.90
22706;DHT22;11520;51.198;4.468;2022-08-21T05:38:24;16.60;99.90
22706;DHT22;11520;51.198;4.468;2022-08-21T05:40:50;16.60;99.90
22706;DHT22;11520;51.198;4.468;2022-08-21T05:43:15;16.60;99.90
22706;DHT22;11520;51.198;4.468;2022-08-21T05:45:41;16.70;99.90
22706;DHT22;11520;51.198;4.468;2022-08-21T05:48:12;16.70;99.90
22706;DHT22;11520;51.198;4.468;2022-08-21T05:50:42;16.80;99.90
22706;DHT22;11520;51.198;4.468;2022-08-21T05:53:08;16.80;99.90
22706;DHT22;11520;51.198;4.468;2022-08-21T05:55:38;17.00;99.90
22706;DHT22;11520;51.198;4.468;2022-08-21T05:58:07;17.10;99.90
22706;DHT22;11520;51.198;4.468;2022-08-21T06:00:36;17.20;99.90
22706;DHT22;11520;51.198;4.468;2022-08-21T06:03:11;17.30;99.90
22706;DHT22;11520;51.198;4.468;2022-08-21T06:05:39;17.20;99.90
22706;DHT22;11520;51.198;4.468;2022-08-21T06:08:07;17.30;99.90
22706;DHT22;11520;51.198;4.468;2022-08-21T06:10:35;17.50;99.90
22706;DHT22;11520;51.198;4.468;2022-08-21T06:13:01;17.60;99.90
22706;DHT22;11520;51.198;4.468;2022-08-21T06:15:26;17.80;99.90
22706;DHT22;11520;51.198;4.468;2022-08-21T06:17:53;18.30;99.90
22706;DHT22;11520;51.198;4.468;2022-08-21T06:20:21;19.50;99.90
22706;DHT22;11520;51.198;4.468;2022-08-21T06:22:47;21.40;99.90
22706;DHT22;11520;51.198;4.468;2022-08-21T06:25:13;23.30;99.90
22706;DHT22;11520;51.198;4.468;2022-08-21T06:27:39;25.00;99.90
22706;DHT22;11520;51.198;4.468;2022-08-21T06:30:06;26.40;99.90
22706;DHT22;11520;51.198;4.468;2022-08-21T06:32:32;27.50;99.90
22706;DHT22;11520;51.198;4.468;2022-08-21T06:34:58;28.20;98.50
22706;DHT22;11520;51.198;4.468;2022-08-21T06:37:24;28.40;96.60
22706;DHT22;11520;51.198;4.468;2022-08-21T06:39:51;29.20;94.40
22706;DHT22;11520;51.198;4.468;2022-08-21T06:42:20;29.90;91.30
22706;DHT22;11520;51.198;4.468;2022-08-21T06:44:47;31.20;88.50
22706;DHT22;11520;51.198;4.468;2022-08-21T06:47:13;31.50;83.80
22706;DHT22;11520;51.198;4.468;2022-08-21T06:49:40;31.60;79.40
22706;DHT22;11520;51.198;4.468;2022-08-21T06:52:11;32.40;76.30
22706;DHT22;11520;51.198;4.468;2022-08-21T06:54:38;33.10;73.80
22706;DHT22;11520;51.198;4.468;2022-08-21T06:57:05;33.70;69.90
22706;DHT22;11520;51.198;4.468;2022-08-21T06:59:32;34.50;67.00
22706;DHT22;11520;51.198;4.468;2022-08-21T07:01:58;34.00;66.10
22706;DHT22;11520;51.198;4.468;2022-08-21T07:04:25;33.90;64.90
22706;DHT22;11520;51.198;4.468;2022-08-21T07:06:50;33.50;65.80
22706;DHT22;11520;51.198;4.468;2022-08-21T07:09:16;33.80;66.10
22706;DHT22;11520;51.198;4.468;2022-08-21T07:11:42;34.50;62.30
22706;DHT22;11520;51.198;4.468;2022-08-21T07:14:11;35.50;60.70
22706;DHT22;11520;51.198;4.468;2022-08-21T07:16:37;36.30;58.10
22706;DHT22;11520;51.198;4.468;2022-08-21T07:19:03;37.10;55.20
22706;DHT22;11520;51.198;4.468;2022-08-21T07:21:28;37.10;54.90
22706;DHT22;11520;51.198;4.468;2022-08-21T07:23:59;37.70;52.90
22706;DHT22;11520;51.198;4.468;2022-08-21T07:26:25;37.70;52.00
22706;DHT22;11520;51.198;4.468;2022-08-21T07:28:53;37.90;51.50
22706;DHT22;11520;51.198;4.468;2022-08-21T07:31:20;38.10;50.90
22706;DHT22;11520;51.198;4.468;2022-08-21T07:33:47;38.40;49.60
22706;DHT22;11520;51.198;4.468;2022-08-21T07:36:14;38.80;49.50
22706;DHT22;11520;51.198;4.468;2022-08-21T07:38:40;39.20;47.90
22706;DHT22;11520;51.198;4.468;2022-08-21T07:41:23;39.20;46.70
22706;DHT22;11520;51.198;4.468;2022-08-21T07:43:49;39.40;46.80
22706;DHT22;11520;51.198;4.468;2022-08-21T07:46:16;39.00;45.70
22706;DHT22;11520;51.198;4.468;2022-08-21T07:49:00;38.50;47.00
22706;DHT22;11520;51.198;4.468;2022-08-21T07:51:27;38.80;47.40
22706;DHT22;11520;51.198;4.468;2022-08-21T07:53:57;39.20;46.60
22706;DHT22;11520;51.198;4.468;2022-08-21T07:56:26;39.60;45.60
22706;DHT22;11520;51.198;4.468;2022-08-21T07:59:02;39.30;45.30
22706;DHT22;11520;51.198;4.468;2022-08-21T08:01:35;39.80;44.90
22706;DHT22;11520;51.198;4.468;2022-08-21T08:04:11;39.40;45.30
22706;DHT22;11520;51.198;4.468;2022-08-21T08:06:37;39.50;45.40
22706;DHT22;11520;51.198;4.468;2022-08-21T08:09:34;39.50;44.90
22706;DHT22;11520;51.198;4.468;2022-08-21T08:11:59;39.80;44.70
22706;DHT22;11520;51.198;4.468;2022-08-21T08:14:25;39.70;44.50
22706;DHT22;11520;51.198;4.468;2022-08-21T08:19:40;38.80;45.60
22706;DHT22;11520;51.198;4.468;2022-08-21T08:22:19;38.90;44.80
22706;DHT22;11520;51.198;4.468;2022-08-21T08:24:48;38.30;45.30
22706;DHT22;11520;51.198;4.468;2022-08-21T08:27:15;37.80;45.20
22706;DHT22;11520;51.198;4.468;2022-08-21T08:29:42;37.40;46.40
22706;DHT22;11520;51.198;4.468;2022-08-21T08:32:07;37.60;46.80
22706;DHT22;11520;51.198;4.468;2022-08-21T08:34:37;37.90;46.30
22706;DHT22;11520;51.198;4.468;2022-08-21T08:37:06;38.30;45.30
22706;DHT22;11520;51.198;4.468;2022-08-21T08:39:34;39.00;44.70
22706;DHT22;11520;51.198;4.468;2022-08-21T08:42:09;39.80;43.80
22706;DHT22;11520;51.198;4.468;2022-08-21T08:44:45;40.10;41.80
22706;DHT22;11520;51.198;4.468;2022-08-21T08:47:14;40.00;42.00
22706;DHT22;11520;51.198;4.468;2022-08-21T08:49:56;40.30;41.40
22706;DHT22;11520;51.198;4.468;2022-08-21T08:52:33;40.00;41.30
22706;DHT22;11520;51.198;4.468;2022-08-21T08:55:08;39.90;41.20
22706;DHT22;11520;51.198;4.468;2022-08-21T08:57:37;41.00;41.00
22706;DHT22;11520;51.198;4.468;2022-08-21T09:00:08;42.00;39.90
22706;DHT22;11520;51.198;4.468;2022-08-21T09:02:38;42.30;38.20
22706;DHT22;11520;51.198;4.468;2022-08-21T09:05:05;42.10;38.30
22706;DHT22;11520;51.198;4.468;2022-08-21T09:07:47;42.70;37.50
22706;DHT22;11520;51.198;4.468;2022-08-21T09:24:48;39.50;40.00
22706;DHT22;11520;51.198;4.468;2022-08-21T09:27:14;38.60;41.00
22706;DHT22;11520;51.198;4.468;2022-08-21T09:29:43;39.20;41.50
22706;DHT22;11520;51.198;4.468;2022-08-21T09:32:28;39.70;40.10
22706;DHT22;11520;51.198;4.468;2022-08-21T09:37:35;40.50;38.60
22706;DHT22;11520;51.198;4.468;2022-08-21T09:40:39;40.10;38.20
22706;DHT22;11520;51.198;4.468;2022-08-21T09:45:40;40.40;38.30
22706;DHT22;11520;51.198;4.468;2022-08-21T09:48:23;38.90;39.00
22706;DHT22;11520;51.198;4.468;2022-08-21T09:50:53;37.70;40.80
22706;DHT22;11520;51.198;4.468;2022-08-21T09:53:33;37.00;42.30
22706;DHT22;11520;51.198;4.468;2022-08-21T09:56:03;36.30;44.20
22706;DHT22;11520;51.198;4.468;2022-08-21T09:58:49;36.10;44.60
22706;DHT22;11520;51.198;4.468;2022-08-21T10:01:23;36.70;43.90
22706;DHT22;11520;51.198;4.468;2022-08-21T10:04:02;37.20;43.20
22706;DHT22;11520;51.198;4.468;2022-08-21T10:06:29;36.40;43.80
22706;DHT22;11520;51.198;4.468;2022-08-21T10:09:28;34.80;45.80
22706;DHT22;11520;51.198;4.468;2022-08-21T10:12:24;33.00;49.40
22706;DHT22;11520;51.198;4.468;2022-08-21T10:20:29;31.30;55.40
22706;DHT22;11520;51.198;4.468;2022-08-21T10:25:41;32.10;55.20
22706;DHT22;11520;51.198;4.468;2022-08-21T10:28:16;32.90;54.10
22706;DHT22;11520;51.198;4.468;2022-08-21T10:34:27;35.70;47.40
22706;DHT22;11520;51.198;4.468;2022-08-21T10:37:13;36.10;46.30
22706;DHT22;11520;51.198;4.468;2022-08-21T10:42:36;38.50;42.80
22706;DHT22;11520;51.198;4.468;2022-08-21T10:45:32;38.30;41.80
22706;DHT22;11520;51.198;4.468;2022-08-21T10:48:22;36.80;43.80
22706;DHT22;11520;51.198;4.468;2022-08-21T10:51:04;36.20;45.10
22706;DHT22;11520;51.198;4.468;2022-08-21T10:56:20;38.10;42.70
22706;DHT22;11520;51.198;4.468;2022-08-21T11:07:26;39.10;40.40
22706;DHT22;11520;51.198;4.468;2022-08-21T11:09:55;38.40;41.00
22706;DHT22;11520;51.198;4.468;2022-08-21T11:12:35;37.10;42.10
22706;DHT22;11520;51.198;4.468;2022-08-21T11:23:55;38.10;40.90
22706;DHT22;11520;51.198;4.468;2022-08-21T11:26:38;38.00;41.50
22706;DHT22;11520;51.198;4.468;2022-08-21T11:29:17;38.40;40.90
22706;DHT22;11520;51.198;4.468;2022-08-21T11:32:01;38.70;40.90
22706;DHT22;11520;51.198;4.468;2022-08-21T11:48:36;38.50;40.30
22706;DHT22;11520;51.198;4.468;2022-08-21T11:51:10;37.40;40.50
22706;DHT22;11520;51.198;4.468;2022-08-21T11:53:51;36.50;42.60
22706;DHT22;11520;51.198;4.468;2022-08-21T11:56:24;35.50;43.30
22706;DHT22;11520;51.198;4.468;2022-08-21T11:58:59;34.10;45.80
22706;DHT22;11520;51.198;4.468;2022-08-21T12:01:34;34.40;46.80
22706;DHT22;11520;51.198;4.468;2022-08-21T12:04:04;35.40;45.20
22706;DHT22;11520;51.198;4.468;2022-08-21T12:06:37;34.90;45.20
22706;DHT22;11520;51.198;4.468;2022-08-21T12:09:11;34.70;46.00
22706;DHT22;11520;51.198;4.468;2022-08-21T12:12:24;35.20;45.10
22706;DHT22;11520;51.198;4.468;2022-08-21T12:15:03;34.90;44.90
22706;DHT22;11520;51.198;4.468;2022-08-21T12:17:36;34.40;45.80
22706;DHT22;11520;51.198;4.468;2022-08-21T12:23:18;33.90;47.30
22706;DHT22;11520;51.198;4.468;2022-08-21T12:26:00;33.20;47.50
22706;DHT22;11520;51.198;4.468;2022-08-21T12:28:27;33.30;49.00
22706;DHT22;11520;51.198;4.468;2022-08-21T12:30:54;32.90;47.90
22706;DHT22;11520;51.198;4.468;2022-08-21T12:33:35;32.60;48.70
22706;DHT22;11520;51.198;4.468;2022-08-21T12:36:09;32.40;48.60
22706;DHT22;11520;51.198;4.468;2022-08-21T12:38:49;32.60;50.50
22706;DHT22;11520;51.198;4.468;2022-08-21T12:41:28;33.40;48.80
22706;DHT22;11520;51.198;4.468;2022-08-21T12:44:08;33.20;47.10
22706;DHT22;11520;51.198;4.468;2022-08-21T12:46:57;32.20;48.20
22706;DHT22;11520;51.198;4.468;2022-08-21T12:49:33;32.00;50.00
22706;DHT22;11520;51.198;4.468;2022-08-21T12:52:24;31.40;50.60
22706;DHT22;11520;51.198;4.468;2022-08-21T12:54:52;31.10;51.70
22706;DHT22;11520;51.198;4.468;2022-08-21T12:57:21;30.90;52.90
22706;DHT22;11520;51.198;4.468;2022-08-21T12:59:55;31.10;53.60
22706;DHT22;11520;51.198;4.468;2022-08-21T13:02:29;30.90;53.50
22706;DHT22;11520;51.198;4.468;2022-08-21T13:05:03;30.60;54.70
22706;DHT22;11520;51.198;4.468;2022-08-21T13:07:32;30.50;54.90
22706;DHT22;11520;51.198;4.468;2022-08-21T13:10:06;30.50;54.30
22706;DHT22;11520;51.198;4.468;2022-08-21T13:12:33;30.30;54.50
22706;DHT22;11520;51.198;4.468;2022-08-21T13:15:04;29.90;55.30
22706;DHT22;11520;51.198;4.468;2022-08-21T13:17:36;29.70;56.50
22706;DHT22;11520;51.198;4.468;2022-08-21T13:20:27;29.70;56.30
22706;DHT22;11520;51.198;4.468;2022-08-21T13:22:56;29.40;57.90
22706;DHT22;11520;51.198;4.468;2022-08-21T13:25:34;29.30;58.70
22706;DHT22;11520;51.198;4.468;2022-08-21T13:28:11;29.20;59.20
22706;DHT22;11520;51.198;4.468;2022-08-21T13:31:00;29.10;59.60
22706;DHT22;11520;51.198;4.468;2022-08-21T13:33:34;29.10;58.70
22706;DHT22;11520;51.198;4.468;2022-08-21T13:38:30;28.70;60.20
22706;DHT22;11520;51.198;4.468;2022-08-21T13:40:59;28.40;60.90
22706;DHT22;11520;51.198;4.468;2022-08-21T13:43:31;28.50;60.70
22706;DHT22;11520;51.198;4.468;2022-08-21T13:45:58;28.50;60.90
22706;DHT22;11520;51.198;4.468;2022-08-21T13:48:28;28.50;60.50
22706;DHT22;11520;51.198;4.468;2022-08-21T13:50:58;28.70;60.30
22706;DHT22;11520;51.198;4.468;2022-08-21T13:53:36;28.70;58.80
22706;DHT22;11520;51.198;4.468;2022-08-21T13:56:04;29.00;58.90
22706;DHT22;11520;51.198;4.468;2022-08-21T13:58:42;29.10;57.20
22706;DHT22;11520;51.198;4.468;2022-08-21T14:01:33;29.20;56.80
22706;DHT22;11520;51.198;4.468;2022-08-21T14:04:07;28.90;57.30
22706;DHT22;11520;51.198;4.468;2022-08-21T14:06:38;28.40;58.40
22706;DHT22;11520;51.198;4.468;2022-08-21T14:09:10;28.20;58.90
22706;DHT22;11520;51.198;4.468;2022-08-21T14:11:38;27.90;60.20
22706;DHT22;11520;51.198;4.468;2022-08-21T14:14:20;27.90;61.20
22706;DHT22;11520;51.198;4.468;2022-08-21T14:16:58;27.80;62.30
22706;DHT22;11520;51.198;4.468;2022-08-21T14:19:28;27.50;64.30
22706;DHT22;11520;51.198;4.468;2022-08-21T14:22:43;27.50;64.80
22706;DHT22;11520;51.198;4.468;2022-08-21T14:25:11;27.10;65.80
22706;DHT22;11520;51.198;4.468;2022-08-21T14:28:20;27.40;66.50
22706;DHT22;11520;51.198;4.468;2022-08-21T14:30:46;27.60;64.80
22706;DHT22;11520;51.198;4.468;2022-08-21T14:33:23;27.40;66.20
22706;DHT22;11520;51.198;4.468;2022-08-21T14:35:51;27.40;64.10
22706;DHT22;11520;51.198;4.468;2022-08-21T14:38:20;27.50;65.10
22706;DHT22;11520;51.198;4.468;2022-08-21T14:40:51;27.60;63.90
22706;DHT22;11520;51.198;4.468;2022-08-21T14:43:19;28.10;63.30
22706;DHT22;11520;51.198;4.468;2022-08-21T14:45:45;28.30;62.70
22706;DHT22;11520;51.198;4.468;2022-08-21T14:48:11;28.30;64.50
22706;DHT22;11520;51.198;4.468;2022-08-21T14:50:38;28.40;63.00
22706;DHT22;11520;51.198;4.468;2022-08-21T14:53:04;28.30;61.30
22706;DHT22;11520;51.198;4.468;2022-08-21T14:55:31;27.90;63.10
22706;DHT22;11520;51.198;4.468;2022-08-21T14:58:20;27.50;64.20
22706;DHT22;11520;51.198;4.468;2022-08-21T15:00:49;27.00;67.20
22706;DHT22;11520;51.198;4.468;2022-08-21T15:03:15;27.20;67.40
22706;DHT22;11520;51.198;4.468;2022-08-21T15:05:42;27.40;66.50
22706;DHT22;11520;51.198;4.468;2022-08-21T15:08:08;27.80;65.60
22706;DHT22;11520;51.198;4.468;2022-08-21T15:10:36;28.20;65.00
22706;DHT22;11520;51.198;4.468;2022-08-21T15:13:03;28.00;60.70
22706;DHT22;11520;51.198;4.468;2022-08-21T15:15:35;28.00;61.50
22706;DHT22;11520;51.198;4.468;2022-08-21T15:18:01;28.20;61.30
22706;DHT22;11520;51.198;4.468;2022-08-21T15:20:27;28.30;61.70
22706;DHT22;11520;51.198;4.468;2022-08-21T15:22:53;28.30;61.60
22706;DHT22;11520;51.198;4.468;2022-08-21T15:25:19;28.40;61.10
22706;DHT22;11520;51.198;4.468;2022-08-21T15:27:44;28.50;61.90
22706;DHT22;11520;51.198;4.468;2022-08-21T15:30:10;28.40;62.30
22706;DHT22;11520;51.198;4.468;2022-08-21T15:32:36;28.50;62.80
22706;DHT22;11520;51.198;4.468;2022-08-21T15:35:03;28.60;62.10
22706;DHT22;11520;51.198;4.468;2022-08-21T15:37:30;28.80;62.00
22706;DHT22;11520;51.198;4.468;2022-08-21T15:39:56;28.80;61.50
22706;DHT22;11520;51.198;4.468;2022-08-21T15:42:22;28.80;61.30
22706;DHT22;11520;51.198;4.468;2022-08-21T15:44:48;28.90;60.70
22706;DHT22;11520;51.198;4.468;2022-08-21T15:47:21;28.90;61.30
22706;DHT22;11520;51.198;4.468;2022-08-21T15:49:51;28.90;62.00
22706;DHT22;11520;51.198;4.468;2022-08-21T15:52:19;28.80;62.00
22706;DHT22;11520;51.198;4.468;2022-08-21T15:54:45;28.70;61.50
22706;DHT22;11520;51.198;4.468;2022-08-21T15:57:16;28.60;62.40
22706;DHT22;11520;51.198;4.468;2022-08-21T15:59:46;28.60;61.50
22706;DHT22;11520;51.198;4.468;2022-08-21T16:02:19;28.50;63.00
22706;DHT22;11520;51.198;4.468;2022-08-21T16:04:52;28.40;63.20
22706;DHT22;11520;51.198;4.468;2022-08-21T16:07:19;28.40;62.70
22706;DHT22;11520;51.198;4.468;2022-08-21T16:09:45;28.40;63.20
22706;DHT22;11520;51.198;4.468;2022-08-21T16:12:28;28.50;63.40
22706;DHT22;11520;51.198;4.468;2022-08-21T16:14:58;28.50;63.10
22706;DHT22;11520;51.198;4.468;2022-08-21T16:17:32;28.40;63.40
22706;DHT22;11520;51.198;4.468;2022-08-21T16:20:00;28.20;65.00
22706;DHT22;11520;51.198;4.468;2022-08-21T16:22:26;28.20;64.60
22706;DHT22;11520;51.198;4.468;2022-08-21T16:24:52;28.20;66.20
22706;DHT22;11520;51.198;4.468;2022-08-21T16:27:17;28.00;64.40
22706;DHT22;11520;51.198;4.468;2022-08-21T16:29:44;27.70;66.50
22706;DHT22;11520;51.198;4.468;2022-08-21T16:32:16;27.50;66.90
22706;DHT22;11520;51.198;4.468;2022-08-21T16:34:48;27.50;67.40
22706;DHT22;11520;51.198;4.468;2022-08-21T16:37:16;27.50;67.20
22706;DHT22;11520;51.198;4.468;2022-08-21T16:39:43;27.20;67.50
22706;DHT22;11520;51.198;4.468;2022-08-21T16:42:15;27.10;68.20
22706;DHT22;11520;51.198;4.468;2022-08-21T16:44:43;27.10;68.30
22706;DHT22;11520;51.198;4.468;2022-08-21T16:47:12;27.10;69.50
22706;DHT22;11520;51.198;4.468;2022-08-21T16:49:38;26.80;70.10
22706;DHT22;11520;51.198;4.468;2022-08-21T16:52:05;26.60;71.00
22706;DHT22;11520;51.198;4.468;2022-08-21T16:54:32;26.30;72.70
22706;DHT22;11520;51.198;4.468;2022-08-21T16:57:00;26.10;74.70
22706;DHT22;11520;51.198;4.468;2022-08-21T16:59:29;26.10;75.70
22706;DHT22;11520;51.198;4.468;2022-08-21T17:01:55;25.80;76.90
22706;DHT22;11520;51.198;4.468;2022-08-21T17:04:24;25.60;77.80
22706;DHT22;11520;51.198;4.468;2022-08-21T17:06:54;25.60;78.80
22706;DHT22;11520;51.198;4.468;2022-08-21T17:09:23;25.60;78.70